Time;durP1;ratioP1;P1;durP2;ratioP2;P2;SDS_P1;SDS_P2;PMS_P1;PMS_P2;Temp;Humidity;BMP_temperature;BMP_pressure;BME280_temperature;BME280_humidity;BME280_pressure;Samples;Min_cycle;Max_cycle;Signal;HPM_P1;HPM_P2
2022/03/17 00:01:49;;;;;;;26.50;19.63;;;;;;;;;;5048066;28;20040;-63
2022/03/17 00:04:16;;;;;;;27.60;20.25;;;;;;;;;;5051468;28;20041;-64
2022/03/17 00:06:42;;;;;;;26.13;19.70;;;;;;;;;;5051770;28;20115;-62
2022/03/17 00:09:08;;;;;;;27.48;19.67;;;;;;;;;;5051873;28;20575;-64
2022/03/17 00:11:35;;;;;;;27.65;20.20;;;;;;;;;;5051396;28;20112;-63
2022/03/17 00:14:04;;;;;;;28.65;19.95;;;;;;;;;;5051462;28;20041;-63
2022/03/17 00:16:31;;;;;;;28.88;20.48;;;;;;;;;;5051314;28;20118;-63
2022/03/17 00:18:57;;;;;;;28.42;20.55;;;;;;;;;;5052158;28;20383;-63
2022/03/17 00:21:23;;;;;;;29.08;20.20;;;;;;;;;;5051814;28;20462;-64
2022/03/17 00:23:50;;;;;;;27.17;19.23;;;;;;;;;;5052781;28;20099;-62
2022/03/17 00:26:17;;;;;;;28.92;20.50;;;;;;;;;;5055994;28;20049;-62
2022/03/17 00:28:43;;;;;;;29.35;20.38;;;;;;;;;;5038825;28;20486;-64
2022/03/17 00:31:09;;;;;;;33.60;20.70;;;;;;;;;;5056825;28;20092;-62
2022/03/17 00:33:35;;;;;;;27.17;20.20;;;;;;;;;;5056050;28;20380;-62
2022/03/17 00:36:01;;;;;;;29.17;21.15;;;;;;;;;;5055244;28;20044;-62
2022/03/17 00:38:27;;;;;;;31.15;21.50;;;;;;;;;;5055926;28;20032;-62
2022/03/17 00:40:53;;;;;;;30.13;20.75;;;;;;;;;;5055414;28;20029;-62
2022/03/17 00:43:23;;;;;;;29.27;20.38;;;;;;;;;;5055265;28;20045;-62
2022/03/17 00:45:49;;;;;;;28.52;19.92;;;;;;;;;;5055797;28;20048;-62
2022/03/17 00:48:15;;;;;;;31.90;21.58;;;;;;;;;;5055041;28;20116;-63
2022/03/17 00:50:41;;;;;;;28.88;20.80;;;;;;;;;;5055763;28;20130;-63
2022/03/17 00:53:07;;;;;;;28.60;20.40;;;;;;;;;;5056008;28;20037;-63
2022/03/17 00:55:34;;;;;;;27.13;20.42;;;;;;;;;;5055613;28;20135;-63
2022/03/17 00:58:00;;;;;;;26.13;19.92;;;;;;;;;;5055556;28;20394;-63
2022/03/17 01:00:27;;;;;;;28.48;20.60;;;;;;;;;;5055477;28;20045;-63
2022/03/17 01:02:54;;;;;;;28.88;20.95;;;;;;;;;;5055358;28;20048;-63
2022/03/17 01:05:20;;;;;;;31.75;22.42;;;;;;;;;;5055378;28;20110;-63
2022/03/17 01:07:47;;;;;;;31.80;22.13;;;;;;;;;;5055777;28;20036;-61
2022/03/17 01:10:18;;;;;;;31.63;22.30;;;;;;;;;;5069270;22;20033;-63
2022/03/17 01:12:46;;;;;;;28.98;19.95;;;;;;;;;;5075451;28;20113;-63
2022/03/17 01:15:12;;;;;;;28.77;20.83;;;;;;;;;;5074400;28;20040;-62
2022/03/17 01:17:38;;;;;;;29.23;21.40;;;;;;;;;;5068331;28;20076;-62
2022/03/17 01:20:05;;;;;;;32.28;20.58;;;;;;;;;;5057035;28;20040;-63
2022/03/17 01:22:31;;;;;;;30.40;22.40;;;;;;;;;;5055585;28;20161;-62
2022/03/17 01:24:57;;;;;;;31.65;20.65;;;;;;;;;;5054258;28;20044;-62
2022/03/17 01:27:23;;;;;;;31.05;21.45;;;;;;;;;;5054251;28;20135;-62
2022/03/17 01:29:50;;;;;;;27.85;20.75;;;;;;;;;;5057572;28;20067;-62
2022/03/17 01:32:17;;;;;;;28.60;20.60;;;;;;;;;;5058819;28;20056;-63
2022/03/17 01:34:43;;;;;;;29.73;21.45;;;;;;;;;;5054405;28;20033;-65
2022/03/17 01:37:09;;;;;;;30.30;20.65;;;;;;;;;;5060142;28;20055;-63
2022/03/17 01:39:36;;;;;;;29.88;21.73;;;;;;;;;;5046680;28;20040;-63
2022/03/17 01:42:06;;;;;;;29.45;20.52;;;;;;;;;;5057987;28;20304;-62
2022/03/17 01:44:33;;;;;;;28.60;20.33;;;;;;;;;;5054055;28;20052;-63
2022/03/17 01:49:44;;;;;;;29.42;20.25;;;;;;;;;;5036178;28;20048;-63
2022/03/17 01:52:10;;;;;;;29.45;20.92;;;;;;;;;;5059081;28;20166;-63
2022/03/17 01:54:37;;;;;;;30.23;21.65;;;;;;;;;;5055999;28;20115;-62
2022/03/17 01:57:04;;;;;;;28.58;20.60;;;;;;;;;;5073922;28;20408;-62
2022/03/17 01:59:31;;;;;;;29.63;20.83;;;;;;;;;;5060662;28;20045;-62
2022/03/17 02:01:58;;;;;;;32.28;21.95;;;;;;;;;;5061240;28;20493;-63
2022/03/17 02:04:25;;;;;;;29.10;20.90;;;;;;;;;;5050636;28;20037;-63
2022/03/17 02:06:51;;;;;;;30.30;22.42;;;;;;;;;;5073473;28;20475;-63
2022/03/17 02:09:19;;;;;;;29.88;21.10;;;;;;;;;;5065889;28;20037;-63
2022/03/17 02:14:34;;;;;;;31.45;22.25;;;;;;;;;;5067557;28;20052;-63
2022/03/17 02:17:00;;;;;;;30.50;22.00;;;;;;;;;;5064344;28;20076;-62
2022/03/17 02:19:26;;;;;;;27.88;21.23;;;;;;;;;;5071353;28;20069;-63
2022/03/17 02:21:53;;;;;;;28.52;21.02;;;;;;;;;;5073499;28;20098;-62
2022/03/17 02:27:04;;;;;;;30.45;20.88;;;;;;;;;;5067826;28;20110;-62
2022/03/17 02:29:31;;;;;;;29.17;22.20;;;;;;;;;;5071936;28;20064;-63
2022/03/17 02:31:58;;;;;;;30.60;21.98;;;;;;;;;;5069367;28;20072;-62
2022/03/17 02:34:24;;;;;;;33.45;22.75;;;;;;;;;;5072922;28;20566;-62
2022/03/17 02:36:51;;;;;;;29.08;21.63;;;;;;;;;;5054808;28;20409;-63
2022/03/17 02:39:18;;;;;;;28.35;22.48;;;;;;;;;;5035640;28;20111;-63
2022/03/17 02:41:44;;;;;;;30.00;21.70;;;;;;;;;;5054427;28;20049;-63
2022/03/17 02:44:11;;;;;;;30.45;22.67;;;;;;;;;;5052798;28;20493;-62
2022/03/17 02:46:37;;;;;;;31.75;21.88;;;;;;;;;;5052597;28;20048;-63
2022/03/17 02:49:03;;;;;;;31.27;21.20;;;;;;;;;;5053569;28;20052;-63
2022/03/17 02:51:30;;;;;;;29.17;21.30;;;;;;;;;;5057933;28;20040;-64
2022/03/17 02:53:56;;;;;;;28.65;22.00;;;;;;;;;;5072967;28;20041;-61
2022/03/17 02:56:22;;;;;;;27.13;20.83;;;;;;;;;;5067113;28;20183;-61
2022/03/17 02:58:48;;;;;;;29.55;20.42;;;;;;;;;;5061150;28;20048;-63
2022/03/17 03:01:14;;;;;;;28.48;21.20;;;;;;;;;;5045800;28;20036;-62
2022/03/17 03:03:40;;;;;;;31.13;21.88;;;;;;;;;;5072806;28;20054;-62
2022/03/17 03:06:06;;;;;;;30.55;22.23;;;;;;;;;;5065254;28;20041;-62
2022/03/17 03:08:33;;;;;;;29.48;22.35;;;;;;;;;;5055380;28;20171;-63
2022/03/17 03:10:59;;;;;;;29.23;22.00;;;;;;;;;;5072112;28;20047;-62
2022/03/17 03:13:25;;;;;;;27.20;20.10;;;;;;;;;;5072396;28;20397;-63
2022/03/17 03:15:52;;;;;;;28.38;22.38;;;;;;;;;;5071481;28;20508;-63
2022/03/17 03:18:19;;;;;;;29.58;20.95;;;;;;;;;;5072783;22;20412;-62
2022/03/17 03:20:45;;;;;;;27.38;20.92;;;;;;;;;;5070730;22;20051;-62
2022/03/17 03:23:11;;;;;;;29.98;22.35;;;;;;;;;;5051831;28;20044;-63
2022/03/17 03:25:38;;;;;;;29.90;22.23;;;;;;;;;;5052722;28;20041;-64
2022/03/17 03:28:05;;;;;;;28.35;21.58;;;;;;;;;;5051676;28;20044;-64
2022/03/17 03:30:31;;;;;;;27.90;22.10;;;;;;;;;;5052408;28;20036;-63
2022/03/17 03:32:57;;;;;;;28.45;21.90;;;;;;;;;;5051855;28;20041;-65
2022/03/17 03:38:08;;;;;;;29.17;23.10;;;;;;;;;;5051452;28;20401;-65
2022/03/17 03:40:34;;;;;;;31.08;22.83;;;;;;;;;;5033809;28;20485;-65
2022/03/17 03:43:00;;;;;;;29.95;23.05;;;;;;;;;;5033308;28;20048;-65
2022/03/17 03:45:26;;;;;;;28.77;22.15;;;;;;;;;;5051687;28;20090;-65
2022/03/17 03:47:52;;;;;;;28.35;22.77;;;;;;;;;;5051933;28;20072;-65
2022/03/17 03:50:19;;;;;;;32.63;23.95;;;;;;;;;;5050988;28;20044;-64
2022/03/17 03:52:46;;;;;;;29.38;22.60;;;;;;;;;;5051129;28;20037;-64
2022/03/17 03:55:12;;;;;;;29.25;22.65;;;;;;;;;;5051125;28;20110;-65
2022/03/17 03:57:39;;;;;;;30.92;22.67;;;;;;;;;;5051409;28;20069;-65
2022/03/17 04:00:20;;;;;;;30.52;22.45;;;;;;;;;;5049610;28;20122;-65
2022/03/17 04:02:46;;;;;;;29.02;22.05;;;;;;;;;;5051350;28;20040;-61
2022/03/17 04:05:13;;;;;;;31.00;24.13;;;;;;;;;;5051592;28;20041;-61
2022/03/17 04:07:39;;;;;;;29.92;23.25;;;;;;;;;;5051242;28;20424;-61
2022/03/17 04:10:05;;;;;;;32.75;23.98;;;;;;;;;;5041816;28;20120;-61
2022/03/17 04:12:31;;;;;;;30.98;23.77;;;;;;;;;;5051382;28;20037;-62
2022/03/17 04:14:57;;;;;;;30.02;24.17;;;;;;;;;;5051467;28;20041;-61
2022/03/17 04:17:24;;;;;;;31.83;24.08;;;;;;;;;;5051672;28;20047;-61
2022/03/17 04:19:50;;;;;;;32.90;25.10;;;;;;;;;;5033026;28;20048;-62
2022/03/17 04:22:16;;;;;;;32.03;25.45;;;;;;;;;;5051571;28;20051;-62
2022/03/17 04:24:42;;;;;;;34.67;25.77;;;;;;;;;;5051794;28;20192;-62
2022/03/17 04:27:08;;;;;;;31.20;24.38;;;;;;;;;;5051908;28;20047;-61
2022/03/17 04:29:35;;;;;;;33.97;25.88;;;;;;;;;;5051141;28;20383;-60
2022/03/17 04:32:01;;;;;;;32.95;25.98;;;;;;;;;;5051020;28;20029;-61
2022/03/17 04:34:27;;;;;;;36.72;26.60;;;;;;;;;;5051486;28;20531;-61
2022/03/17 04:36:53;;;;;;;35.33;26.45;;;;;;;;;;5051729;28;20444;-61
2022/03/17 04:39:19;;;;;;;34.50;26.98;;;;;;;;;;5051756;28;20505;-62
2022/03/17 04:41:45;;;;;;;36.75;25.98;;;;;;;;;;5051001;28;20047;-61
2022/03/17 04:44:13;;;;;;;42.38;28.80;;;;;;;;;;5051047;28;20033;-60
2022/03/17 04:46:40;;;;;;;43.67;31.58;;;;;;;;;;5051432;28;20077;-61
2022/03/17 04:49:07;;;;;;;39.47;29.20;;;;;;;;;;5051254;28;20044;-61
2022/03/17 04:51:33;;;;;;;46.33;33.08;;;;;;;;;;5051484;28;20489;-61
2022/03/17 04:54:00;;;;;;;48.25;32.40;;;;;;;;;;5051529;28;20482;-61
2022/03/17 04:56:26;;;;;;;49.83;34.55;;;;;;;;;;5051315;28;20112;-60
2022/03/17 04:58:52;;;;;;;47.22;33.20;;;;;;;;;;5051198;28;20052;-61
2022/03/17 05:01:19;;;;;;;48.42;34.83;;;;;;;;;;5051305;28;20493;-61
2022/03/17 05:03:45;;;;;;;53.70;36.65;;;;;;;;;;5050630;28;20044;-62
2022/03/17 05:06:15;;;;;;;54.85;36.35;;;;;;;;;;5051545;28;20041;-61
2022/03/17 05:08:41;;;;;;;54.00;36.75;;;;;;;;;;5051762;28;20045;-61
2022/03/17 05:11:07;;;;;;;53.13;35.08;;;;;;;;;;5052864;28;20482;-61
2022/03/17 05:13:34;;;;;;;57.42;39.10;;;;;;;;;;5046178;28;20037;-61
2022/03/17 05:16:00;;;;;;;53.45;35.67;;;;;;;;;;5054872;28;20037;-61
2022/03/17 05:18:26;;;;;;;62.50;39.15;;;;;;;;;;5055022;28;20434;-61
2022/03/17 05:20:53;;;;;;;58.13;37.78;;;;;;;;;;5037320;28;20044;-62
2022/03/17 05:23:20;;;;;;;53.83;36.15;;;;;;;;;;5054785;28;20048;-61
2022/03/17 05:25:47;;;;;;;47.15;31.85;;;;;;;;;;5055421;28;20067;-61
2022/03/17 05:28:14;;;;;;;34.20;21.60;;;;;;;;;;5055472;28;20129;-61
2022/03/17 05:30:41;;;;;;;22.35;15.43;;;;;;;;;;5054713;28;20497;-61
2022/03/17 05:33:07;;;;;;;17.48;11.55;;;;;;;;;;5054624;28;20060;-60
2022/03/17 05:35:34;;;;;;;11.98;9.10;;;;;;;;;;5054536;28;20048;-61
2022/03/17 05:38:00;;;;;;;12.65;9.77;;;;;;;;;;5054916;28;20116;-61
2022/03/17 05:40:27;;;;;;;13.85;10.32;;;;;;;;;;5020167;28;20067;-60
2022/03/17 05:42:54;;;;;;;10.55;9.15;;;;;;;;;;5053910;28;20516;-60
2022/03/17 05:45:20;;;;;;;11.73;10.18;;;;;;;;;;5053775;28;20029;-62
2022/03/17 05:47:47;;;;;;;10.65;9.48;;;;;;;;;;5054425;28;20040;-61
2022/03/17 05:50:15;;;;;;;19.30;14.13;;;;;;;;;;5054126;28;20048;-60
2022/03/17 05:52:44;;;;;;;18.45;13.05;;;;;;;;;;5052683;28;20491;-62
2022/03/17 05:55:12;;;;;;;18.08;13.27;;;;;;;;;;5063538;22;20113;-62
2022/03/17 05:57:39;;;;;;;10.73;9.48;;;;;;;;;;5051209;22;20037;-61
2022/03/17 06:00:05;;;;;;;19.67;14.35;;;;;;;;;;5054127;28;20416;-62
2022/03/17 06:02:31;;;;;;;30.17;19.52;;;;;;;;;;5049289;28;20491;-62
2022/03/17 06:04:57;;;;;;;12.60;10.65;;;;;;;;;;5040426;28;20494;-62
2022/03/17 06:07:23;;;;;;;17.65;13.57;;;;;;;;;;5051551;28;20091;-61
2022/03/17 06:09:50;;;;;;;14.18;10.88;;;;;;;;;;5053946;28;20044;-62
2022/03/17 06:12:16;;;;;;;16.30;12.45;;;;;;;;;;5053197;28;20045;-61
2022/03/17 06:14:43;;;;;;;20.92;15.82;;;;;;;;;;5051572;28;20037;-62
2022/03/17 06:17:12;;;;;;;16.80;12.10;;;;;;;;;;5040660;28;20112;-62
2022/03/17 06:19:38;;;;;;;16.75;11.52;;;;;;;;;;5050850;28;20120;-62
2022/03/17 06:22:04;;;;;;;14.68;11.93;;;;;;;;;;5042460;28;20037;-62
2022/03/17 06:24:30;;;;;;;14.95;11.45;;;;;;;;;;5042867;28;20136;-62
2022/03/17 06:26:56;;;;;;;16.08;11.63;;;;;;;;;;5050451;28;20080;-62
2022/03/17 06:29:23;;;;;;;15.15;11.50;;;;;;;;;;5047955;28;20051;-62
2022/03/17 06:31:49;;;;;;;18.05;12.20;;;;;;;;;;5040620;28;20070;-62
2022/03/17 06:34:15;;;;;;;20.73;12.07;;;;;;;;;;5039535;28;20037;-63
2022/03/17 06:36:41;;;;;;;12.70;10.23;;;;;;;;;;5052264;28;20033;-62
2022/03/17 06:39:08;;;;;;;14.20;10.05;;;;;;;;;;5033905;28;20291;-64
2022/03/17 06:41:34;;;;;;;12.82;9.55;;;;;;;;;;5052790;28;20165;-62
2022/03/17 06:44:00;;;;;;;17.25;9.80;;;;;;;;;;5051892;28;20231;-62
2022/03/17 06:46:26;;;;;;;14.75;10.68;;;;;;;;;;5033333;28;20338;-61
2022/03/17 06:48:52;;;;;;;14.23;9.63;;;;;;;;;;5050787;28;20041;-63
2022/03/17 06:51:18;;;;;;;16.00;9.05;;;;;;;;;;5050841;28;20091;-62
2022/03/17 06:53:45;;;;;;;17.15;9.40;;;;;;;;;;5050823;28;20131;-62
2022/03/17 06:56:11;;;;;;;15.68;9.02;;;;;;;;;;5051333;28;20108;-61
2022/03/17 06:58:39;;;;;;;16.65;8.95;;;;;;;;;;5051339;28;20077;-60
2022/03/17 07:01:05;;;;;;;12.95;8.98;;;;;;;;;;5051987;28;20079;-61
2022/03/17 07:03:31;;;;;;;15.73;9.50;;;;;;;;;;5051836;28;20110;-62
2022/03/17 07:05:57;;;;;;;11.95;8.55;;;;;;;;;;5052330;28;20040;-63
2022/03/17 07:08:23;;;;;;;9.07;7.28;;;;;;;;;;5051759;28;20562;-62
2022/03/17 07:10:49;;;;;;;14.23;8.68;;;;;;;;;;5051286;28;20045;-62
2022/03/17 07:13:16;;;;;;;11.18;7.07;;;;;;;;;;5051595;28;20048;-61
2022/03/17 07:15:42;;;;;;;11.45;6.07;;;;;;;;;;5051861;28;20044;-62
2022/03/17 07:18:08;;;;;;;7.20;4.90;;;;;;;;;;5052023;28;20508;-62
2022/03/17 07:20:34;;;;;;;10.63;4.70;;;;;;;;;;5051516;28;20094;-61
2022/03/17 07:23:00;;;;;;;8.68;4.30;;;;;;;;;;5050734;28;20033;-62
2022/03/17 07:25:27;;;;;;;11.05;4.30;;;;;;;;;;5051851;28;20041;-62
2022/03/17 07:27:53;;;;;;;9.38;3.88;;;;;;;;;;5033653;28;20410;-62
2022/03/17 07:30:22;;;;;;;8.05;3.95;;;;;;;;;;5051327;28;20261;-62
2022/03/17 07:32:52;;;;;;;9.75;3.72;;;;;;;;;;5028784;28;20049;-62
2022/03/17 07:35:18;;;;;;;11.38;4.63;;;;;;;;;;5027888;28;20124;-62
2022/03/17 07:37:45;;;;;;;8.00;4.13;;;;;;;;;;5044343;28;20490;-62
2022/03/17 07:40:12;;;;;;;12.23;3.92;;;;;;;;;;5044235;28;20037;-62
2022/03/17 07:42:38;;;;;;;10.52;2.90;;;;;;;;;;5044929;28;20037;-61
2022/03/17 07:45:05;;;;;;;9.98;3.20;;;;;;;;;;5042614;28;20036;-61
2022/03/17 07:47:33;;;;;;;8.85;3.08;;;;;;;;;;5051386;28;20490;-62
2022/03/17 07:50:00;;;;;;;6.93;3.28;;;;;;;;;;5032090;28;20124;-62
2022/03/17 07:52:27;;;;;;;12.02;4.57;;;;;;;;;;5049888;28;20045;-62
2022/03/17 07:54:53;;;;;;;10.52;4.35;;;;;;;;;;5046907;28;20050;-62
2022/03/17 07:57:19;;;;;;;8.52;3.75;;;;;;;;;;5042262;28;20124;-62
2022/03/17 07:59:45;;;;;;;8.80;3.20;;;;;;;;;;5038676;28;20077;-62
2022/03/17 08:02:11;;;;;;;9.73;3.47;;;;;;;;;;5039679;28;20495;-62
2022/03/17 08:04:38;;;;;;;10.68;3.97;;;;;;;;;;5040779;28;20162;-62
2022/03/17 08:07:04;;;;;;;12.18;3.90;;;;;;;;;;5051334;28;20041;-62
2022/03/17 08:09:30;;;;;;;9.60;2.58;;;;;;;;;;5051719;28;20124;-62
2022/03/17 08:11:57;;;;;;;9.55;2.40;;;;;;;;;;5050863;28;20372;-63
2022/03/17 08:14:23;;;;;;;6.68;1.77;;;;;;;;;;5032392;28;20041;-61
2022/03/17 08:16:49;;;;;;;8.82;2.08;;;;;;;;;;5050828;28;20042;-61
2022/03/17 08:19:15;;;;;;;8.05;1.95;;;;;;;;;;5051075;28;20408;-63
2022/03/17 08:21:41;;;;;;;6.78;1.83;;;;;;;;;;5050180;28;20103;-62
2022/03/17 08:24:08;;;;;;;7.63;1.85;;;;;;;;;;5044860;28;20037;-61
2022/03/17 08:26:35;;;;;;;6.25;1.88;;;;;;;;;;5050406;28;20041;-61
2022/03/17 08:29:01;;;;;;;7.78;1.73;;;;;;;;;;5050315;28;20045;-62
2022/03/17 08:31:28;;;;;;;11.60;1.92;;;;;;;;;;5049702;28;20053;-61
2022/03/17 08:33:56;;;;;;;6.57;1.98;;;;;;;;;;5050663;28;20497;-61
2022/03/17 08:36:25;;;;;;;7.00;1.60;;;;;;;;;;5049457;28;20029;-62
2022/03/17 08:38:52;;;;;;;8.00;1.67;;;;;;;;;;5050192;28;20037;-60
2022/03/17 08:41:19;;;;;;;10.60;1.83;;;;;;;;;;5050627;28;20072;-59
2022/03/17 08:43:45;;;;;;;9.45;1.83;;;;;;;;;;5050164;28;20052;-62
2022/03/17 08:51:40;;;;;;;10.95;1.92;;;;;;;;;;5054307;28;20037;-61
2022/03/17 08:54:07;;;;;;;10.20;2.30;;;;;;;;;;5054479;28;20048;-60
2022/03/17 08:56:34;;;;;;;8.48;2.53;;;;;;;;;;5054294;28;20098;-60
2022/03/17 08:59:00;;;;;;;13.15;2.38;;;;;;;;;;5053674;28;20409;-60
2022/03/17 09:01:26;;;;;;;9.85;2.65;;;;;;;;;;5053970;28;20543;-60
2022/03/17 09:03:53;;;;;;;11.82;2.25;;;;;;;;;;5052513;28;20433;-60
2022/03/17 09:06:19;;;;;;;9.27;2.53;;;;;;;;;;5047962;28;20055;-60
2022/03/17 09:08:45;;;;;;;9.10;2.60;;;;;;;;;;5054061;28;20052;-61
2022/03/17 09:11:13;;;;;;;7.22;2.33;;;;;;;;;;5053809;28;20060;-61
2022/03/17 09:13:39;;;;;;;8.02;1.92;;;;;;;;;;5052139;28;20048;-60
2022/03/17 09:16:06;;;;;;;8.25;2.25;;;;;;;;;;5054281;28;20132;-60
2022/03/17 09:18:32;;;;;;;10.93;2.97;;;;;;;;;;5053119;28;20040;-61
2022/03/17 09:21:03;;;;;;;10.98;2.63;;;;;;;;;;5053610;28;20120;-61
2022/03/17 09:23:29;;;;;;;9.38;2.25;;;;;;;;;;5053818;28;20094;-60
2022/03/17 09:25:55;;;;;;;12.60;2.38;;;;;;;;;;5052890;28;20076;-60
2022/03/17 09:28:22;;;;;;;10.60;2.55;;;;;;;;;;5052504;28;20119;-61
2022/03/17 09:30:50;;;;;;;10.57;3.20;;;;;;;;;;5053859;28;20388;-61
2022/03/17 09:33:17;;;;;;;11.38;2.47;;;;;;;;;;5053297;28;20052;-61
2022/03/17 09:35:43;;;;;;;6.18;2.10;;;;;;;;;;5053030;28;20111;-61
2022/03/17 09:38:10;;;;;;;15.10;2.28;;;;;;;;;;5052572;28;20080;-61
2022/03/17 09:40:36;;;;;;;10.90;2.42;;;;;;;;;;5047487;28;20044;-60
2022/03/17 09:43:18;;;;;;;12.95;2.58;;;;;;;;;;5044818;28;20036;-61
2022/03/17 09:45:46;;;;;;;10.05;2.47;;;;;;;;;;5052642;28;20071;-61
2022/03/17 09:48:14;;;;;;;9.45;2.20;;;;;;;;;;5035863;28;20041;-60
2022/03/17 09:50:41;;;;;;;10.55;2.33;;;;;;;;;;5035264;28;20171;-60
2022/03/17 09:53:07;;;;;;;11.27;2.00;;;;;;;;;;5053280;28;20052;-61
2022/03/17 09:55:34;;;;;;;12.60;2.58;;;;;;;;;;5053488;28;20401;-61
2022/03/17 09:58:01;;;;;;;6.15;2.30;;;;;;;;;;5051782;28;20490;-61
2022/03/17 10:00:47;;;;;;;10.40;2.30;;;;;;;;;;5052746;28;20497;-61
2022/03/17 10:03:13;;;;;;;6.72;1.98;;;;;;;;;;5032657;28;20044;-62
2022/03/17 10:05:39;;;;;;;7.22;1.90;;;;;;;;;;5039560;28;20037;-61
2022/03/17 10:08:05;;;;;;;7.00;2.05;;;;;;;;;;5048015;28;20028;-61
2022/03/17 10:10:38;;;;;;;5.78;1.77;;;;;;;;;;5044682;28;20072;-61
2022/03/17 10:13:10;;;;;;;8.23;2.28;;;;;;;;;;5049771;28;20238;-61
2022/03/17 10:15:37;;;;;;;10.30;1.98;;;;;;;;;;5043480;28;20048;-60
2022/03/17 10:18:18;;;;;;;8.68;2.00;;;;;;;;;;5047015;28;20037;-61
2022/03/17 10:20:44;;;;;;;6.97;2.17;;;;;;;;;;5051907;28;20052;-64
2022/03/17 10:23:11;;;;;;;6.90;2.40;;;;;;;;;;5048630;28;20121;-64
2022/03/17 10:25:37;;;;;;;9.25;1.80;;;;;;;;;;5034932;28;20048;-65
2022/03/17 10:28:04;;;;;;;7.88;2.25;;;;;;;;;;5051892;28;20033;-65
2022/03/17 10:30:33;;;;;;;10.30;2.58;;;;;;;;;;5051823;28;20159;-64
2022/03/17 10:33:01;;;;;;;9.18;2.08;;;;;;;;;;5051144;28;20407;-65
2022/03/17 10:35:36;;;;;;;7.55;2.22;;;;;;;;;;5053092;28;20056;-64
2022/03/17 10:38:16;;;;;;;8.60;2.30;;;;;;;;;;5032776;28;20079;-63
2022/03/17 10:40:43;;;;;;;9.02;2.67;;;;;;;;;;5029898;28;20122;-66
2022/03/17 10:43:15;;;;;;;7.60;1.92;;;;;;;;;;5049878;28;20063;-66
2022/03/17 10:45:42;;;;;;;6.57;1.85;;;;;;;;;;5051616;28;20405;-66
2022/03/17 10:48:08;;;;;;;9.57;2.15;;;;;;;;;;5052055;28;20379;-66
2022/03/17 10:50:38;;;;;;;8.00;2.08;;;;;;;;;;5052481;28;20033;-66
2022/03/17 10:53:04;;;;;;;6.85;2.30;;;;;;;;;;5051394;28;20036;-65
2022/03/17 10:55:32;;;;;;;8.73;2.28;;;;;;;;;;5051503;28;20025;-65
2022/03/17 10:58:18;;;;;;;6.47;1.50;;;;;;;;;;5048350;28;20094;-65
2022/03/17 11:00:49;;;;;;;5.95;1.45;;;;;;;;;;5029561;28;20116;-66
2022/03/17 11:03:15;;;;;;;5.70;1.70;;;;;;;;;;5051788;28;20041;-65
2022/03/17 11:05:41;;;;;;;6.72;2.03;;;;;;;;;;5037084;28;20044;-65
2022/03/17 11:08:09;;;;;;;8.00;1.77;;;;;;;;;;5047377;28;20116;-66
2022/03/17 11:10:36;;;;;;;8.48;1.60;;;;;;;;;;5051673;28;20394;-66
2022/03/17 11:13:09;;;;;;;5.28;1.70;;;;;;;;;;5050876;28;20538;-66
2022/03/17 11:15:38;;;;;;;7.40;1.67;;;;;;;;;;5052182;28;20041;-64
2022/03/17 11:18:08;;;;;;;8.27;1.60;;;;;;;;;;5044190;28;20037;-66
2022/03/17 11:20:35;;;;;;;7.55;1.98;;;;;;;;;;5034437;28;20035;-66
2022/03/17 11:23:20;;;;;;;6.32;1.60;;;;;;;;;;5048230;28;20409;-66
2022/03/17 11:25:52;;;;;;;5.45;1.52;;;;;;;;;;5050421;28;20072;-66
2022/03/17 11:28:19;;;;;;;5.75;1.80;;;;;;;;;;5033919;28;20237;-63
2022/03/17 11:30:46;;;;;;;6.47;1.55;;;;;;;;;;5051601;28;20063;-64
2022/03/17 11:33:30;;;;;;;8.25;1.92;;;;;;;;;;5033739;28;20037;-65
2022/03/17 11:35:59;;;;;;;5.67;1.83;;;;;;;;;;5044619;28;20036;-64
2022/03/17 11:38:38;;;;;;;10.05;2.00;;;;;;;;;;5056356;28;20485;-67
2022/03/17 11:41:07;;;;;;;5.95;1.50;;;;;;;;;;5051454;28;20040;-62
2022/03/17 11:43:40;;;;;;;6.78;1.80;;;;;;;;;;5052369;28;20120;-66
2022/03/17 11:46:09;;;;;;;6.40;1.77;;;;;;;;;;5050865;28;20056;-63
2022/03/17 11:48:36;;;;;;;7.63;2.00;;;;;;;;;;5051706;28;20315;-64
2022/03/17 11:51:06;;;;;;;7.85;1.92;;;;;;;;;;5051489;28;20048;-63
2022/03/17 11:53:56;;;;;;;4.97;2.30;;;;;;;;;;5051597;28;20076;-63
2022/03/17 11:56:28;;;;;;;8.50;2.35;;;;;;;;;;5038895;28;20041;-63
2022/03/17 11:58:54;;;;;;;6.57;1.95;;;;;;;;;;5051399;28;20382;-63
2022/03/17 12:01:27;;;;;;;5.07;2.17;;;;;;;;;;5046004;28;20032;-63
2022/03/17 12:03:55;;;;;;;6.87;1.80;;;;;;;;;;5047530;28;20106;-64
2022/03/17 12:06:21;;;;;;;6.93;1.60;;;;;;;;;;5032783;28;20084;-65
2022/03/17 12:08:47;;;;;;;4.50;1.58;;;;;;;;;;5045281;28;20250;-63
2022/03/17 12:11:17;;;;;;;5.50;1.58;;;;;;;;;;5037564;28;20033;-64
2022/03/17 12:14:03;;;;;;;4.35;1.50;;;;;;;;;;5043467;28;20044;-64
2022/03/17 12:16:40;;;;;;;4.43;1.70;;;;;;;;;;5034738;28;20094;-64
2022/03/17 12:19:06;;;;;;;9.65;2.35;;;;;;;;;;5040562;28;20068;-64
2022/03/17 12:21:51;;;;;;;5.50;1.88;;;;;;;;;;5048710;28;20072;-64
2022/03/17 12:24:33;;;;;;;6.32;2.00;;;;;;;;;;5045618;28;20095;-64
2022/03/17 12:27:07;;;;;;;8.02;2.33;;;;;;;;;;5047490;28;20041;-64
2022/03/17 12:29:33;;;;;;;;;;;;;;;;;;5039464;28;20060;-64
2022/03/17 12:32:25;;;;;;;8.05;2.17;;;;;;;;;;5048870;28;19920;-66
2022/03/17 12:34:53;;;;;;;8.40;2.17;;;;;;;;;;5038758;28;21062;-66
2022/03/17 12:37:21;;;;;;;8.85;2.30;;;;;;;;;;5042130;28;20037;-66
2022/03/17 12:39:52;;;;;;;9.00;2.20;;;;;;;;;;5034963;28;20041;-66
2022/03/17 12:42:20;;;;;;;5.22;1.67;;;;;;;;;;5048551;28;20045;-65
2022/03/17 12:44:50;;;;;;;7.35;2.08;;;;;;;;;;5046448;28;20052;-65
2022/03/17 12:47:17;;;;;;;7.05;2.00;;;;;;;;;;5050088;28;20040;-65
2022/03/17 12:49:43;;;;;;;7.38;1.75;;;;;;;;;;5049178;28;20087;-66
2022/03/17 12:52:21;;;;;;;6.07;2.10;;;;;;;;;;5028116;28;20049;-66
2022/03/17 12:54:50;;;;;;;6.47;2.25;;;;;;;;;;5046839;28;20137;-66
2022/03/17 12:57:16;;;;;;;5.78;1.98;;;;;;;;;;5041560;28;20136;-66
2022/03/17 12:59:42;;;;;;;5.40;1.73;;;;;;;;;;5043456;28;20040;-66
2022/03/17 13:02:08;;;;;;;6.60;2.35;;;;;;;;;;5044319;28;20032;-66
2022/03/17 13:04:36;;;;;;;4.40;2.00;;;;;;;;;;5026124;28;20033;-66
2022/03/17 13:07:06;;;;;;;8.13;1.95;;;;;;;;;;5042685;28;20044;-66
2022/03/17 13:09:32;;;;;;;5.82;1.88;;;;;;;;;;5025533;28;20490;-66
2022/03/17 13:14:48;;;;;;;8.00;2.00;;;;;;;;;;5043370;28;20125;-66
2022/03/17 13:17:16;;;;;;;7.32;2.20;;;;;;;;;;5042358;28;20530;-66
2022/03/17 13:19:50;;;;;;;6.65;2.15;;;;;;;;;;5047729;28;20044;-65
2022/03/17 13:22:23;;;;;;;4.65;2.05;;;;;;;;;;5042216;28;20038;-65
2022/03/17 13:25:07;;;;;;;7.22;2.25;;;;;;;;;;5033147;28;20044;-65
2022/03/17 13:27:38;;;;;;;6.70;1.83;;;;;;;;;;5047955;28;20044;-65
2022/03/17 13:30:22;;;;;;;7.57;2.53;;;;;;;;;;5043022;28;20119;-66
2022/03/17 13:33:04;;;;;;;5.63;1.65;;;;;;;;;;5048378;28;20032;-66
2022/03/17 13:35:33;;;;;;;7.18;2.10;;;;;;;;;;5046179;28;20648;-66
2022/03/17 13:38:05;;;;;;;6.97;2.22;;;;;;;;;;5040731;28;20033;-67
2022/03/17 13:40:41;;;;;;;7.60;2.20;;;;;;;;;;5044900;28;20037;-66
2022/03/17 13:43:07;;;;;;;5.68;1.67;;;;;;;;;;5041882;28;20359;-66
2022/03/17 13:45:39;;;;;;;7.20;2.10;;;;;;;;;;5027480;28;20037;-63
2022/03/17 13:48:15;;;;;;;4.82;1.90;;;;;;;;;;5053989;28;20044;-64
2022/03/17 13:50:43;;;;;;;5.30;2.03;;;;;;;;;;5053829;28;20449;-65
2022/03/17 13:53:13;;;;;;;6.15;2.08;;;;;;;;;;5034513;28;20409;-64
2022/03/17 13:55:39;;;;;;;6.68;2.00;;;;;;;;;;5052956;28;20115;-65
2022/03/17 13:58:09;;;;;;;7.32;1.80;;;;;;;;;;5034915;28;20044;-64
2022/03/17 14:00:35;;;;;;;5.22;1.80;;;;;;;;;;5048020;28;20096;-64
2022/03/17 14:03:32;;;;;;;5.90;1.92;;;;;;;;;;5044705;28;20110;-64
2022/03/17 14:06:04;;;;;;;6.93;1.95;;;;;;;;;;5027766;28;20441;-64
2022/03/17 14:08:32;;;;;;;5.22;1.50;;;;;;;;;;5050387;28;20032;-63
2022/03/17 14:10:59;;;;;;;5.50;1.92;;;;;;;;;;5054341;28;20402;-63
2022/03/17 14:13:26;;;;;;;7.03;1.98;;;;;;;;;;5053679;28;20044;-65
2022/03/17 14:15:52;;;;;;;4.90;1.98;;;;;;;;;;5054264;28;20041;-65
2022/03/17 14:18:19;;;;;;;7.55;2.15;;;;;;;;;;5054451;28;20036;-64
2022/03/17 14:20:46;;;;;;;5.28;2.35;;;;;;;;;;5054427;28;20098;-63
2022/03/17 14:25:57;;;;;;;4.55;1.52;;;;;;;;;;5054133;28;20049;-66
2022/03/17 14:28:23;;;;;;;6.25;2.00;;;;;;;;;;5035154;28;20048;-66
2022/03/17 14:30:50;;;;;;;7.20;1.90;;;;;;;;;;5050651;28;20037;-66
2022/03/17 14:33:16;;;;;;;5.50;2.10;;;;;;;;;;5052705;28;20039;-66
2022/03/17 14:35:43;;;;;;;5.55;1.98;;;;;;;;;;5053918;28;20029;-67
2022/03/17 14:38:09;;;;;;;7.22;2.08;;;;;;;;;;5053743;28;20095;-67
2022/03/17 14:40:36;;;;;;;5.22;2.08;;;;;;;;;;5053917;28;20032;-66
2022/03/17 14:43:03;;;;;;;6.03;1.98;;;;;;;;;;5051986;28;20037;-66
2022/03/17 14:45:30;;;;;;;4.57;2.03;;;;;;;;;;5036069;28;20072;-67
2022/03/17 14:47:56;;;;;;;5.25;2.17;;;;;;;;;;5035699;28;20041;-66
2022/03/17 14:50:22;;;;;;;6.45;1.98;;;;;;;;;;5053072;28;20037;-66
2022/03/17 14:52:49;;;;;;;7.90;1.90;;;;;;;;;;5053211;28;20037;-67
2022/03/17 14:55:15;;;;;;;7.70;1.98;;;;;;;;;;5052589;28;20040;-66
2022/03/17 14:57:41;;;;;;;5.70;1.90;;;;;;;;;;5035238;28;20082;-67